< < Back
Terminal Aerodrome Forecast


Current Version              Previous Versions:   1  2  3  4  5  6  7  8  9  

Terminal Aerodrome Forecast

861
FTUS42 KFFC 260344 AAB
TAFATL
TAF AMD
KATL 260344Z 2604/2706 17005KT P6SM SCT250
     FM260700 15004KT P6SM SCT050
     FM261400 22007KT P6SM SCT060
     FM270100 17004KT P6SM SCT250=

Latest METAR

439
SAUS70 KWBC 261200 RRJ
MTRATL
METAR KATL 261152Z 00000KT 10SM FEW060 SCT100 BKN140 OVC200 22/16 A3021
RMK AO2 SLP220 VIRGA W-NW ACC E-OHD-W T02170156 10222 20211
53018


USA.gov is the U.S. government's official web portal to all federal, state and local government web resources and services.